createdAt,value
2023-05-09T00:00:06.074Z,16.50
2023-05-09T00:02:34.903Z,16.50
2023-05-09T00:05:02.959Z,16.50
2023-05-09T00:07:30.018Z,16.40
2023-05-09T00:09:57.012Z,16.40
2023-05-09T00:12:23.985Z,16.40
2023-05-09T00:14:52.007Z,16.40
2023-05-09T00:17:19.031Z,16.40
2023-05-09T00:19:45.987Z,16.40
2023-05-09T00:22:13.322Z,16.40
2023-05-09T00:24:40.293Z,16.40
2023-05-09T00:27:07.266Z,16.40
2023-05-09T00:29:34.233Z,16.40
2023-05-09T00:32:01.352Z,16.40
2023-05-09T00:34:28.413Z,16.40
2023-05-09T00:36:55.615Z,16.30
2023-05-09T00:39:22.681Z,16.40
2023-05-09T00:41:50.027Z,16.40
2023-05-09T00:44:16.953Z,16.40
2023-05-09T00:46:44.050Z,16.40
2023-05-09T00:49:12.766Z,16.30
2023-05-09T00:51:40.401Z,16.30
2023-05-09T00:54:10.111Z,16.30
2023-05-09T00:56:37.359Z,16.30
2023-05-09T00:59:04.390Z,16.30
2023-05-09T01:01:31.345Z,16.30
2023-05-09T01:03:58.625Z,16.20
2023-05-09T01:06:44.158Z,16.20
2023-05-09T01:09:24.903Z,16.20
2023-05-09T01:12:03.883Z,16.20
2023-05-09T01:14:49.467Z,16.20
2023-05-09T01:17:31.954Z,16.20
2023-05-09T01:19:59.026Z,16.20
2023-05-09T01:22:29.965Z,16.10
2023-05-09T01:24:56.888Z,16.10
2023-05-09T01:27:45.385Z,16.10
2023-05-09T01:30:13.831Z,16.00
2023-05-09T01:32:43.015Z,16.00
2023-05-09T01:35:12.416Z,16.00
2023-05-09T01:37:40.596Z,16.00
2023-05-09T01:40:08.870Z,16.00
2023-05-09T01:42:41.426Z,16.00
2023-05-09T01:45:10.140Z,16.00
2023-05-09T01:47:38.329Z,15.90
2023-05-09T01:50:05.901Z,15.90
2023-05-09T01:52:37.917Z,16.00
2023-05-09T01:55:06.044Z,16.00
2023-05-09T01:57:33.680Z,15.90
2023-05-09T02:00:02.076Z,15.90
2023-05-09T02:02:29.262Z,15.90
2023-05-09T02:04:57.067Z,15.90
2023-05-09T02:07:24.840Z,15.90
2023-05-09T02:09:54.246Z,15.90
2023-05-09T02:12:21.346Z,15.90
2023-05-09T02:14:48.325Z,15.90
2023-05-09T02:17:17.317Z,15.90
2023-05-09T02:19:44.469Z,15.80
2023-05-09T02:22:12.350Z,15.90
2023-05-09T02:24:39.431Z,15.90
2023-05-09T02:27:06.425Z,15.80
2023-05-09T02:29:40.876Z,15.80
2023-05-09T02:32:29.009Z,15.80
2023-05-09T02:34:56.248Z,15.80
2023-05-09T02:37:23.889Z,15.80
2023-05-09T02:39:50.883Z,15.80
2023-05-09T02:42:25.602Z,15.80
2023-05-09T02:44:53.024Z,15.80
2023-05-09T02:47:20.395Z,15.80
2023-05-09T02:49:48.018Z,15.80
2023-05-09T02:52:15.184Z,15.80
2023-05-09T02:54:42.163Z,15.80
2023-05-09T02:57:09.179Z,15.80
2023-05-09T02:59:36.300Z,15.70
2023-05-09T03:02:03.243Z,15.70
2023-05-09T03:04:30.732Z,15.70
2023-05-09T03:06:57.812Z,15.70
2023-05-09T03:09:24.748Z,15.60
2023-05-09T03:11:51.711Z,15.60
2023-05-09T03:14:18.721Z,15.60
2023-05-09T03:16:45.799Z,15.60
2023-05-09T03:19:12.857Z,15.60
2023-05-09T03:21:39.990Z,15.60
2023-05-09T03:24:08.044Z,15.70
2023-05-09T03:26:37.932Z,15.60
2023-05-09T03:29:04.892Z,15.60
2023-05-09T03:31:32.201Z,15.70
2023-05-09T03:33:59.285Z,15.70
2023-05-09T03:36:26.632Z,15.60
2023-05-09T03:38:53.583Z,15.70
2023-05-09T03:41:21.048Z,15.60
2023-05-09T03:43:48.014Z,15.70
2023-05-09T03:46:14.968Z,15.70
2023-05-09T03:48:41.980Z,15.60
2023-05-09T03:51:08.938Z,15.60
2023-05-09T03:53:36.038Z,15.60
2023-05-09T03:56:03.012Z,15.70
2023-05-09T03:58:29.958Z,15.70
2023-05-09T04:00:56.937Z,15.70
2023-05-09T04:03:24.026Z,15.70
2023-05-09T04:05:51.143Z,15.70
2023-05-09T04:08:18.365Z,15.70
2023-05-09T04:10:45.414Z,15.70
2023-05-09T04:13:12.377Z,15.70
2023-05-09T04:15:39.401Z,15.70
2023-05-09T04:18:06.529Z,15.70
2023-05-09T04:20:33.675Z,15.70
2023-05-09T04:23:00.708Z,15.70
2023-05-09T04:25:27.819Z,15.70
2023-05-09T04:27:54.768Z,15.70
2023-05-09T04:30:22.798Z,15.70
2023-05-09T04:32:50.174Z,15.80
2023-05-09T04:35:20.408Z,15.80
2023-05-09T04:37:47.846Z,15.80
2023-05-09T04:40:14.952Z,15.80
2023-05-09T04:42:42.523Z,15.90
2023-05-09T04:45:11.944Z,15.90
2023-05-09T04:47:39.126Z,15.90
2023-05-09T04:50:06.451Z,15.90
2023-05-09T04:52:33.715Z,15.90
2023-05-09T04:55:01.198Z,15.90
2023-05-09T04:57:28.189Z,15.90
2023-05-09T04:59:55.263Z,15.90
2023-05-09T05:02:22.718Z,15.90
2023-05-09T05:04:49.787Z,15.90
2023-05-09T05:07:16.785Z,16.00
2023-05-09T05:09:43.744Z,16.00
2023-05-09T05:12:10.847Z,16.00
2023-05-09T05:14:37.849Z,16.00
2023-05-09T05:17:04.870Z,16.00
2023-05-09T05:19:32.455Z,16.10
2023-05-09T05:21:59.457Z,16.00
2023-05-09T05:24:26.646Z,16.10
2023-05-09T05:26:53.663Z,16.10
2023-05-09T05:29:20.801Z,16.00
2023-05-09T05:31:47.892Z,16.00
2023-05-09T05:34:16.998Z,16.00
2023-05-09T05:36:44.197Z,16.00
2023-05-09T05:39:11.316Z,16.00
2023-05-09T05:41:38.263Z,16.00
2023-05-09T05:44:05.538Z,16.00
2023-05-09T05:46:32.484Z,16.10
2023-05-09T05:48:59.405Z,16.10
2023-05-09T05:51:26.391Z,16.10
2023-05-09T05:53:53.424Z,16.10
2023-05-09T05:56:20.890Z,16.10
2023-05-09T05:58:47.860Z,16.20
2023-05-09T06:01:14.958Z,16.20
2023-05-09T06:03:42.051Z,16.20
2023-05-09T06:06:09.186Z,16.30
2023-05-09T06:08:36.255Z,16.30
2023-05-09T06:11:03.318Z,16.40
2023-05-09T06:13:30.353Z,16.40
2023-05-09T06:16:01.984Z,16.40
2023-05-09T06:18:40.345Z,16.40
2023-05-09T06:21:07.626Z,16.50
2023-05-09T06:23:38.045Z,16.50
2023-05-09T06:26:07.437Z,16.50
2023-05-09T06:28:34.420Z,16.60
2023-05-09T06:31:02.004Z,16.60
2023-05-09T06:33:29.131Z,16.60
2023-05-09T06:35:56.096Z,16.60
2023-05-09T06:38:23.091Z,16.60
2023-05-09T06:40:50.077Z,16.60
2023-05-09T06:43:17.118Z,16.70
2023-05-09T06:45:45.117Z,16.70
2023-05-09T06:48:13.233Z,16.70
2023-05-09T06:50:40.178Z,16.80
2023-05-09T06:53:07.161Z,16.80
2023-05-09T06:55:34.161Z,16.80
2023-05-09T06:58:01.145Z,16.90
2023-05-09T07:00:28.047Z,16.90
2023-05-09T07:02:55.119Z,16.90
2023-05-09T07:05:22.142Z,16.90
2023-05-09T07:07:49.327Z,16.90
2023-05-09T07:10:16.394Z,16.90
2023-05-09T07:12:43.440Z,16.90
2023-05-09T07:15:11.474Z,17.00
2023-05-09T07:17:38.614Z,16.90
2023-05-09T07:20:06.149Z,16.90
2023-05-09T07:22:34.876Z,17.00
2023-05-09T07:25:04.188Z,16.90
2023-05-09T07:27:31.307Z,17.00
2023-05-09T07:29:58.446Z,17.10
2023-05-09T07:32:25.526Z,17.10
2023-05-09T07:34:52.486Z,17.10
2023-05-09T07:37:19.484Z,17.10
2023-05-09T07:39:47.810Z,17.20
2023-05-09T07:42:14.909Z,17.20
2023-05-09T07:44:41.992Z,17.20
2023-05-09T07:47:09.609Z,17.30
2023-05-09T07:49:36.634Z,17.30
2023-05-09T07:52:03.914Z,17.30
2023-05-09T07:54:31.074Z,17.30
2023-05-09T07:56:58.064Z,17.40
2023-05-09T07:59:25.234Z,17.40
2023-05-09T08:01:52.317Z,17.50
2023-05-09T08:04:19.504Z,17.50
2023-05-09T08:06:46.580Z,17.50
2023-05-09T08:09:13.543Z,17.50
2023-05-09T08:11:41.084Z,17.50
2023-05-09T08:14:08.052Z,17.60
2023-05-09T08:16:35.227Z,17.60
2023-05-09T08:19:02.303Z,17.80
2023-05-09T08:21:29.482Z,17.80
2023-05-09T08:23:57.172Z,17.80
2023-05-09T08:26:24.223Z,17.80
2023-05-09T08:28:51.180Z,17.90
2023-05-09T08:31:18.320Z,18.00
2023-05-09T08:33:45.371Z,18.00
2023-05-09T08:36:12.311Z,18.00
2023-05-09T08:38:40.824Z,18.00
2023-05-09T08:41:07.820Z,18.00
2023-05-09T08:43:35.769Z,18.00
2023-05-09T08:46:09.979Z,18.00
2023-05-09T08:48:39.964Z,18.00
2023-05-09T08:51:07.303Z,18.00
2023-05-09T08:53:34.735Z,18.00
2023-05-09T08:56:03.749Z,18.10
2023-05-09T08:58:31.357Z,18.00
2023-05-09T09:00:59.221Z,18.00
2023-05-09T09:03:27.314Z,18.00
2023-05-09T09:05:55.110Z,18.00
2023-05-09T09:08:22.886Z,18.00
2023-05-09T09:10:50.042Z,17.90
2023-05-09T09:13:17.989Z,17.90
2023-05-09T09:15:46.476Z,17.90
2023-05-09T09:18:16.826Z,17.90
2023-05-09T09:20:48.690Z,17.90
2023-05-09T09:23:18.967Z,17.90
2023-05-09T09:25:46.574Z,17.80
2023-05-09T09:28:13.580Z,17.80
2023-05-09T09:30:44.265Z,17.80
2023-05-09T09:33:18.778Z,17.80
2023-05-09T09:35:46.027Z,17.80
2023-05-09T09:38:12.944Z,17.80
2023-05-09T09:40:40.938Z,17.90
2023-05-09T09:43:08.282Z,17.90
2023-05-09T09:45:36.597Z,17.90
2023-05-09T09:48:06.357Z,17.90
2023-05-09T09:50:33.460Z,17.90
2023-05-09T09:53:03.857Z,17.90
2023-05-09T09:55:32.430Z,17.90
2023-05-09T09:57:59.573Z,17.90
2023-05-09T10:00:28.014Z,17.80
2023-05-09T10:02:56.489Z,17.80
2023-05-09T10:05:27.720Z,17.80
2023-05-09T10:07:56.916Z,17.80
2023-05-09T10:10:26.440Z,17.80
2023-05-09T10:12:54.561Z,17.80
2023-05-09T10:15:22.162Z,17.80
2023-05-09T10:17:54.658Z,17.80
2023-05-09T10:20:22.534Z,17.80
2023-05-09T10:22:50.793Z,17.90
2023-05-09T10:25:19.834Z,17.90
2023-05-09T10:27:47.983Z,17.90
2023-05-09T10:30:19.360Z,17.90
2023-05-09T10:32:53.630Z,17.80
2023-05-09T10:35:22.370Z,17.80
2023-05-09T10:37:49.736Z,17.70
2023-05-09T10:40:17.921Z,17.80
2023-05-09T10:42:45.189Z,17.80
2023-05-09T10:45:13.273Z,17.90
2023-05-09T10:47:40.837Z,17.80
2023-05-09T10:50:08.913Z,17.80
2023-05-09T10:52:56.113Z,17.80
2023-05-09T10:55:23.217Z,17.80
2023-05-09T10:57:53.771Z,17.70
2023-05-09T11:00:24.826Z,17.70
2023-05-09T11:03:10.775Z,17.60
2023-05-09T11:05:40.710Z,17.60
2023-05-09T11:08:20.599Z,17.70
2023-05-09T11:10:48.008Z,17.70
2023-05-09T11:13:18.717Z,17.80
2023-05-09T11:16:03.832Z,17.70
2023-05-09T11:18:32.602Z,17.70
2023-05-09T11:20:59.943Z,17.70
2023-05-09T11:23:27.676Z,17.70
2023-05-09T11:26:04.298Z,17.70
2023-05-09T11:28:32.546Z,17.70
2023-05-09T11:31:29.136Z,17.70
2023-05-09T11:34:03.062Z,17.70
2023-05-09T11:36:32.278Z,17.70
2023-05-09T11:39:03.879Z,17.70
2023-05-09T11:41:31.611Z,17.60
2023-05-09T11:44:00.736Z,17.60
2023-05-09T11:46:27.884Z,17.70
2023-05-09T11:48:54.971Z,17.70
2023-05-09T11:51:22.181Z,17.70
2023-05-09T11:53:54.345Z,17.70
2023-05-09T11:56:23.437Z,17.70
2023-05-09T11:58:51.650Z,17.70
2023-05-09T12:01:18.797Z,17.80
2023-05-09T12:03:46.319Z,17.80
2023-05-09T12:06:17.879Z,17.80
2023-05-09T12:08:48.290Z,17.70
2023-05-09T12:11:15.542Z,17.70
2023-05-09T12:13:47.386Z,17.80
2023-05-09T12:16:14.951Z,17.80
2023-05-09T12:18:51.932Z,17.80
2023-05-09T12:21:19.555Z,17.80
2023-05-09T12:23:50.630Z,17.70
2023-05-09T12:26:22.402Z,17.70
2023-05-09T12:28:49.431Z,17.70
2023-05-09T12:31:17.542Z,17.70
2023-05-09T12:33:44.639Z,17.70
2023-05-09T12:36:13.290Z,17.70
2023-05-09T12:38:40.265Z,17.70
2023-05-09T12:41:15.406Z,17.70
2023-05-09T12:43:56.068Z,17.70
2023-05-09T12:46:23.449Z,17.80
2023-05-09T12:48:50.863Z,17.80
2023-05-09T12:51:21.344Z,17.70
2023-05-09T12:53:48.579Z,17.80
2023-05-09T12:56:19.623Z,17.80
2023-05-09T12:58:50.147Z,17.80
2023-05-09T13:01:17.371Z,17.80
2023-05-09T13:03:45.252Z,17.80
2023-05-09T13:06:13.870Z,17.80
2023-05-09T13:08:41.208Z,17.80
2023-05-09T13:11:16.666Z,17.80
2023-05-09T13:13:44.168Z,17.80
2023-05-09T13:16:13.329Z,17.80
2023-05-09T13:18:41.925Z,17.80
2023-05-09T13:21:08.957Z,17.80
2023-05-09T13:23:36.104Z,17.80
2023-05-09T13:26:03.571Z,17.80
2023-05-09T13:28:30.759Z,17.70
2023-05-09T13:30:57.835Z,17.70
2023-05-09T13:33:26.639Z,17.60
2023-05-09T13:35:54.062Z,17.60
2023-05-09T13:38:21.085Z,17.60
2023-05-09T13:40:48.092Z,17.60
2023-05-09T13:43:15.085Z,17.70
2023-05-09T13:45:42.589Z,17.60
2023-05-09T13:48:09.713Z,17.70
2023-05-09T13:50:36.735Z,17.60
2023-05-09T13:53:03.738Z,17.70
2023-05-09T13:55:31.104Z,17.70
2023-05-09T13:57:58.161Z,17.70
2023-05-09T14:00:26.835Z,17.80
2023-05-09T14:02:54.238Z,17.70
2023-05-09T14:05:21.345Z,17.70
2023-05-09T14:07:48.330Z,17.70
2023-05-09T14:10:15.362Z,17.60
2023-05-09T14:12:44.699Z,17.60
2023-05-09T14:15:11.753Z,17.60
2023-05-09T14:17:39.994Z,17.60
2023-05-09T14:20:07.291Z,17.60
2023-05-09T14:22:34.295Z,17.60
2023-05-09T14:25:01.307Z,17.60
2023-05-09T14:27:28.424Z,17.60
2023-05-09T14:29:55.515Z,17.60
2023-05-09T14:32:22.562Z,17.50
2023-05-09T14:34:49.820Z,17.50
2023-05-09T14:37:17.133Z,17.50
2023-05-09T14:39:45.525Z,17.50
2023-05-09T14:42:14.358Z,17.40
2023-05-09T14:44:41.872Z,17.40
2023-05-09T14:47:10.427Z,17.40
2023-05-09T14:49:40.056Z,17.30
2023-05-09T14:52:07.056Z,17.30
2023-05-09T14:54:35.042Z,17.30
2023-05-09T14:57:04.777Z,17.30
2023-05-09T14:59:31.798Z,17.30
2023-05-09T15:01:58.990Z,17.20
2023-05-09T15:04:45.911Z,17.20
2023-05-09T15:07:12.911Z,17.20
2023-05-09T15:09:39.982Z,17.20
2023-05-09T15:12:06.972Z,17.10
2023-05-09T15:14:33.948Z,17.10
2023-05-09T15:17:03.649Z,17.10
2023-05-09T15:19:32.006Z,17.00
2023-05-09T15:21:59.632Z,17.00
2023-05-09T15:24:27.155Z,17.00
2023-05-09T15:26:54.580Z,16.90
2023-05-09T15:29:24.517Z,16.90
2023-05-09T15:31:51.499Z,16.90
2023-05-09T15:34:19.026Z,16.90
2023-05-09T15:36:46.207Z,16.90
2023-05-09T15:39:13.224Z,16.90
2023-05-09T15:41:40.363Z,16.90
2023-05-09T15:44:07.733Z,16.90
2023-05-09T15:46:34.903Z,16.80
2023-05-09T15:49:02.159Z,16.80
2023-05-09T15:51:30.299Z,16.90
2023-05-09T15:53:57.358Z,17.00
2023-05-09T15:56:25.744Z,17.10
2023-05-09T15:58:52.783Z,17.10
2023-05-09T16:01:19.788Z,17.20
2023-05-09T16:03:46.928Z,17.20
2023-05-09T16:06:14.425Z,17.20
2023-05-09T16:08:41.462Z,17.30
2023-05-09T16:11:08.712Z,17.30
2023-05-09T16:13:36.171Z,17.30
2023-05-09T16:16:03.463Z,17.30
2023-05-09T16:18:30.481Z,17.40
2023-05-09T16:20:57.523Z,17.40
2023-05-09T16:23:25.342Z,17.40
2023-05-09T16:25:52.364Z,17.40
2023-05-09T16:28:19.784Z,17.40
2023-05-09T16:30:47.018Z,17.40
2023-05-09T16:33:13.981Z,17.40
2023-05-09T16:35:41.351Z,17.40
2023-05-09T16:38:08.441Z,17.30
2023-05-09T16:40:35.392Z,17.30
2023-05-09T16:43:02.605Z,17.30
2023-05-09T16:45:29.677Z,17.30
2023-05-09T16:47:58.961Z,17.30
2023-05-09T16:50:29.028Z,17.30
2023-05-09T16:52:56.023Z,17.30
2023-05-09T16:55:23.071Z,17.30
2023-05-09T16:57:50.177Z,17.30
2023-05-09T17:00:17.894Z,17.30
2023-05-09T17:02:44.986Z,17.30
2023-05-09T17:05:12.041Z,17.30
2023-05-09T17:07:39.046Z,17.30
2023-05-09T17:10:06.311Z,17.30
2023-05-09T17:12:33.491Z,17.30
2023-05-09T17:15:00.440Z,17.30
2023-05-09T17:17:27.809Z,17.30
2023-05-09T17:19:54.897Z,17.30
2023-05-09T17:22:21.855Z,17.30
2023-05-09T17:24:48.932Z,17.30
2023-05-09T17:27:15.974Z,17.20
2023-05-09T17:29:42.918Z,17.20
2023-05-09T17:32:09.964Z,17.20
2023-05-09T17:34:38.185Z,17.20
2023-05-09T17:37:09.350Z,17.20
2023-05-09T17:39:38.596Z,17.10
2023-05-09T17:42:05.646Z,17.20
2023-05-09T17:44:33.086Z,17.10
2023-05-09T17:47:01.371Z,17.20
2023-05-09T17:49:29.636Z,17.20
2023-05-09T17:52:01.414Z,17.10
2023-05-09T17:54:28.549Z,17.10
2023-05-09T17:57:01.643Z,17.10
2023-05-09T17:59:29.270Z,17.10
2023-05-09T18:01:56.418Z,17.10
2023-05-09T18:04:23.671Z,17.10
2023-05-09T18:06:50.710Z,17.10
2023-05-09T18:09:17.860Z,17.10
2023-05-09T18:11:44.944Z,17.10
2023-05-09T18:14:13.328Z,17.00
2023-05-09T18:16:40.334Z,17.00
2023-05-09T18:19:07.754Z,17.00
2023-05-09T18:21:34.840Z,17.00
2023-05-09T18:24:02.115Z,17.00
2023-05-09T18:26:29.233Z,17.00
2023-05-09T18:28:56.510Z,17.00
2023-05-09T18:31:23.572Z,16.90
2023-05-09T18:33:50.616Z,16.90
2023-05-09T18:36:17.825Z,16.90
2023-05-09T18:38:44.803Z,16.90
2023-05-09T18:41:12.648Z,16.90
2023-05-09T18:43:46.126Z,16.90
2023-05-09T18:46:18.291Z,16.90
2023-05-09T18:48:45.781Z,16.90
2023-05-09T18:51:12.808Z,16.90
2023-05-09T18:53:39.762Z,16.90
2023-05-09T18:56:07.021Z,16.90
2023-05-09T18:58:34.152Z,16.90
2023-05-09T19:01:02.018Z,16.80
2023-05-09T19:03:30.689Z,16.80
2023-05-09T19:05:59.023Z,16.80
2023-05-09T19:08:26.594Z,16.80
2023-05-09T19:10:54.158Z,16.80
2023-05-09T19:13:21.433Z,16.80
2023-05-09T19:15:48.606Z,16.80
2023-05-09T19:18:15.750Z,16.80
2023-05-09T19:20:43.507Z,16.80
2023-05-09T19:23:10.899Z,16.80
2023-05-09T19:25:38.060Z,16.80
2023-05-09T19:28:05.157Z,16.70
2023-05-09T19:30:32.272Z,16.70
2023-05-09T19:32:59.492Z,16.70
2023-05-09T19:35:26.563Z,16.70
2023-05-09T19:37:53.598Z,16.70
2023-05-09T19:40:20.834Z,16.70
2023-05-09T19:42:47.857Z,16.60
2023-05-09T19:45:15.541Z,16.60
2023-05-09T19:47:42.936Z,16.60
2023-05-09T19:50:10.346Z,16.60
2023-05-09T19:52:37.482Z,16.60
2023-05-09T19:55:04.724Z,16.70
2023-05-09T19:57:31.838Z,16.60
2023-05-09T19:59:58.976Z,16.60
2023-05-09T20:02:26.043Z,16.60
2023-05-09T20:04:54.481Z,16.60
2023-05-09T20:07:21.499Z,16.60
2023-05-09T20:09:49.000Z,16.60
2023-05-09T20:12:16.144Z,16.60
2023-05-09T20:14:43.164Z,16.60
2023-05-09T20:17:10.140Z,16.60
2023-05-09T20:19:37.203Z,16.60
2023-05-09T20:22:04.294Z,16.60
2023-05-09T20:24:34.095Z,16.60
2023-05-09T20:27:02.825Z,16.60
2023-05-09T20:29:30.355Z,16.60
2023-05-09T20:31:57.812Z,16.60
2023-05-09T20:34:27.416Z,16.50
2023-05-09T20:36:55.243Z,16.60
2023-05-09T20:39:22.258Z,16.50
2023-05-09T20:41:49.780Z,16.50
2023-05-09T20:44:17.975Z,16.50
2023-05-09T20:46:45.550Z,16.50
2023-05-09T20:49:12.908Z,16.50
2023-05-09T20:51:39.951Z,16.50
2023-05-09T20:54:07.375Z,16.50
2023-05-09T20:56:35.735Z,16.50
2023-05-09T20:59:04.367Z,16.50
2023-05-09T21:01:32.754Z,16.50
2023-05-09T21:03:59.833Z,16.50
2023-05-09T21:06:26.844Z,16.50
2023-05-09T21:08:53.790Z,16.50
2023-05-09T21:11:22.398Z,16.50
2023-05-09T21:13:49.446Z,16.40
2023-05-09T21:16:16.429Z,16.40
2023-05-09T21:18:43.500Z,16.40
2023-05-09T21:21:11.007Z,16.40
2023-05-09T21:23:38.095Z,16.40
2023-05-09T21:26:05.157Z,16.40
2023-05-09T21:28:33.025Z,16.40
2023-05-09T21:31:01.963Z,16.30
2023-05-09T21:33:29.431Z,16.30
2023-05-09T21:35:56.489Z,16.30
2023-05-09T21:38:23.507Z,16.30
2023-05-09T21:40:51.479Z,16.30
2023-05-09T21:43:18.481Z,16.30
2023-05-09T21:45:45.902Z,16.20
2023-05-09T21:48:12.970Z,16.10
2023-05-09T21:50:40.322Z,16.10
2023-05-09T21:53:07.395Z,16.10
2023-05-09T21:55:34.733Z,16.10
2023-05-09T21:58:02.066Z,16.10
2023-05-09T22:00:29.102Z,16.10
2023-05-09T22:02:56.273Z,16.20
2023-05-09T22:05:23.985Z,16.20
2023-05-09T22:07:51.670Z,16.10
2023-05-09T22:10:19.358Z,16.20
2023-05-09T22:12:46.455Z,16.20
2023-05-09T22:15:13.586Z,16.20
2023-05-09T22:17:40.681Z,16.20
2023-05-09T22:20:08.158Z,16.20
2023-05-09T22:22:35.213Z,16.20
2023-05-09T22:25:03.157Z,16.20
2023-05-09T22:27:30.192Z,16.20
2023-05-09T22:29:57.296Z,16.10
2023-05-09T22:32:24.243Z,16.10
2023-05-09T22:34:51.231Z,16.10
2023-05-09T22:37:18.199Z,16.10
2023-05-09T22:39:45.157Z,16.10
2023-05-09T22:42:12.441Z,16.10
2023-05-09T22:44:39.791Z,16.10
2023-05-09T22:47:09.874Z,16.10
2023-05-09T22:49:36.879Z,16.00
2023-05-09T22:52:04.495Z,16.00
2023-05-09T22:54:31.518Z,16.00
2023-05-09T22:57:08.061Z,16.00
2023-05-09T22:59:35.253Z,16.00
2023-05-09T23:02:02.247Z,16.00
2023-05-09T23:04:29.262Z,16.00
2023-05-09T23:06:56.536Z,16.00
2023-05-09T23:09:23.671Z,16.00
2023-05-09T23:11:50.706Z,16.00
2023-05-09T23:14:17.752Z,16.00
2023-05-09T23:16:45.203Z,16.00
2023-05-09T23:19:12.260Z,16.00
2023-05-09T23:21:39.664Z,16.00
2023-05-09T23:24:07.007Z,16.00
2023-05-09T23:26:35.198Z,16.00
2023-05-09T23:29:02.312Z,16.00
2023-05-09T23:31:29.383Z,16.00
2023-05-09T23:33:56.463Z,16.00
2023-05-09T23:36:23.492Z,16.00
2023-05-09T23:38:50.466Z,16.00
2023-05-09T23:41:17.418Z,16.00
2023-05-09T23:43:44.355Z,16.00
2023-05-09T23:46:11.774Z,16.00
2023-05-09T23:48:39.319Z,16.00
2023-05-09T23:51:06.319Z,16.00
2023-05-09T23:53:35.363Z,15.90
2023-05-09T23:56:03.190Z,15.90
2023-05-09T23:58:30.150Z,15.90
